Time;durP1;ratioP1;P1;durP2;ratioP2;P2;SDS_P1;SDS_P2;PMS_P1;PMS_P2;Temp;Humidity;BMP_temperature;BMP_pressure;BME280_temperature;BME280_humidity;BME280_pressure;Samples;Min_cycle;Max_cycle;Signal;HPM_P1;HPM_P2
2023/01/23 00:00:56;;;;;;;9.95;5.72;;;3.30;99.90;;;;;;5070673;28;20029;-35
2023/01/23 00:03:22;;;;;;;10.80;5.30;;;3.30;99.90;;;;;;5072848;28;20446;-39
2023/01/23 00:06:20;;;;;;;11.77;5.38;;;3.30;99.90;;;;;;5073808;28;20103;-37
2023/01/23 00:08:46;;;;;;;18.17;5.80;;;3.30;99.90;;;;;;5047621;28;20083;-37
2023/01/23 00:11:15;;;;;;;9.88;4.85;;;3.30;99.90;;;;;;5074893;28;20350;-39
2023/01/23 00:13:41;;;;;;;11.60;6.72;;;3.30;99.90;;;;;;5071347;28;20504;-36
2023/01/23 00:16:09;;;;;;;15.15;5.78;;;3.20;99.90;;;;;;5072548;28;20051;-37
2023/01/23 00:18:34;;;;;;;11.85;5.28;;;3.20;99.90;;;;;;5073343;28;20024;-38
2023/01/23 00:21:08;;;;;;;9.07;4.45;;;3.20;99.90;;;;;;5072874;28;20100;-37
2023/01/23 00:23:34;;;;;;;13.68;5.95;;;3.20;99.90;;;;;;5071736;28;20024;-36
2023/01/23 00:26:09;;;;;;;12.05;5.30;;;3.30;99.90;;;;;;5074754;28;20023;-37
2023/01/23 00:28:38;;;;;;;14.98;5.28;;;3.30;99.90;;;;;;5071196;28;20488;-40
2023/01/23 00:31:11;;;;;;;10.00;5.05;;;3.30;99.90;;;;;;5071782;28;20477;-39
2023/01/23 00:33:41;;;;;;;12.18;5.88;;;3.30;99.90;;;;;;5071505;28;20035;-35
2023/01/23 00:38:52;;;;;;;16.88;5.95;;;3.30;99.90;;;;;;5069461;28;20038;-39
2023/01/23 00:41:17;;;;;;;13.05;5.53;;;3.30;99.90;;;;;;5072814;28;20020;-37
2023/01/23 00:43:43;;;;;;;12.93;5.45;;;3.30;99.90;;;;;;5073665;28;20082;-38
2023/01/23 00:46:09;;;;;;;12.48;4.57;;;3.30;99.90;;;;;;5074235;28;20503;-38
2023/01/23 00:48:35;;;;;;;11.38;5.38;;;3.30;99.90;;;;;;5074119;28;20052;-39
2023/01/23 00:51:00;;;;;;;11.77;4.93;;;3.30;99.90;;;;;;5073733;28;20530;-41
2023/01/23 00:53:26;;;;;;;10.88;5.03;;;3.30;99.90;;;;;;5071977;28;20036;-34
2023/01/23 00:55:53;;;;;;;11.88;4.72;;;3.30;99.90;;;;;;5071300;28;20044;-39
2023/01/23 00:58:19;;;;;;;12.30;5.33;;;3.40;99.90;;;;;;5073248;28;20533;-39
2023/01/23 01:00:44;;;;;;;13.70;5.20;;;3.30;99.90;;;;;;5074694;28;20052;-36
2023/01/23 01:03:10;;;;;;;12.82;5.30;;;3.20;99.90;;;;;;5073494;28;20484;-39
2023/01/23 01:05:36;;;;;;;15.98;5.97;;;3.20;99.90;;;;;;5072990;28;20035;-36
2023/01/23 01:08:02;;;;;;;15.30;5.40;;;3.20;99.90;;;;;;5072702;28;20393;-39
2023/01/23 01:10:29;;;;;;;13.65;5.28;;;3.20;99.90;;;;;;5073664;28;20111;-35
2023/01/23 01:12:59;;;;;;;7.47;4.53;;;3.20;99.90;;;;;;5076980;28;20040;-38
2023/01/23 01:15:26;;;;;;;11.82;5.30;;;3.20;99.90;;;;;;5077793;28;20115;-40
2023/01/23 01:17:53;;;;;;;14.15;5.85;;;3.20;99.90;;;;;;5072677;28;20465;-36
2023/01/23 01:20:24;;;;;;;10.13;5.45;;;3.10;99.90;;;;;;5073589;28;20091;-39
2023/01/23 01:22:50;;;;;;;13.88;4.65;;;3.10;99.90;;;;;;5068077;28;20104;-39
2023/01/23 01:25:16;;;;;;;12.77;5.47;;;3.10;99.90;;;;;;5072542;28;20056;-41
2023/01/23 01:27:42;;;;;;;15.45;5.68;;;3.10;99.90;;;;;;5073543;28;20017;-39
2023/01/23 01:30:08;;;;;;;7.97;4.85;;;3.10;99.90;;;;;;5072555;28;20431;-39
2023/01/23 01:32:41;;;;;;;12.95;5.53;;;3.10;99.90;;;;;;5072085;28;20048;-39
2023/01/23 01:35:08;;;;;;;10.43;5.38;;;3.10;99.90;;;;;;5067726;28;20032;-38
2023/01/23 01:37:35;;;;;;;10.77;5.78;;;3.10;99.90;;;;;;5078696;28;20047;-38
2023/01/23 01:40:00;;;;;;;17.60;5.45;;;3.10;99.90;;;;;;5070902;28;20052;-38
2023/01/23 01:42:27;;;;;;;13.63;5.60;;;3.10;99.90;;;;;;5072262;28;20519;-39
2023/01/23 01:45:00;;;;;;;10.43;5.57;;;3.10;99.90;;;;;;5071447;28;20020;-42
2023/01/23 01:47:26;;;;;;;16.63;4.80;;;3.10;99.90;;;;;;5071909;28;20036;-40
2023/01/23 01:49:55;;;;;;;7.97;4.35;;;3.10;99.90;;;;;;5073026;28;20040;-35
2023/01/23 01:52:22;;;;;;;18.02;5.82;;;3.10;99.90;;;;;;5072076;28;20539;-40
2023/01/23 01:54:53;;;;;;;10.10;5.40;;;3.20;99.90;;;;;;5072159;28;20051;-40
2023/01/23 01:57:24;;;;;;;14.00;5.43;;;3.10;99.90;;;;;;5067202;28;20040;-39
2023/01/23 01:59:51;;;;;;;17.85;6.03;;;3.20;99.90;;;;;;5069972;28;20021;-41
2023/01/23 02:02:42;;;;;;;13.68;5.10;;;3.10;99.90;;;;;;5069732;28;20442;-40
2023/01/23 02:05:20;;;;;;;8.65;4.85;;;3.10;99.90;;;;;;5061555;28;20078;-37
2023/01/23 02:08:06;;;;;;;12.82;5.15;;;3.10;99.90;;;;;;5070909;28;20622;-37
2023/01/23 02:10:33;;;;;;;11.07;5.32;;;3.10;99.90;;;;;;5070486;28;20560;-39
2023/01/23 02:13:29;;;;;;;16.75;5.90;;;3.00;99.90;;;;;;5073482;28;20116;-40
2023/01/23 02:15:55;;;;;;;10.70;5.75;;;3.00;99.90;;;;;;5072419;28;20058;-41
2023/01/23 02:18:21;;;;;;;12.15;5.85;;;3.00;99.90;;;;;;5069821;28;20047;-40
2023/01/23 02:20:49;;;;;;;14.10;5.10;;;3.00;99.90;;;;;;5070186;28;20024;-40
2023/01/23 02:23:18;;;;;;;;;;;3.00;99.90;;;;;;5072067;28;20039;-39
2023/01/23 02:25:43;;;;;;;9.85;4.82;;;3.00;99.90;;;;;;5070767;28;19943;-40
2023/01/23 02:28:11;;;;;;;14.00;5.93;;;3.00;99.90;;;;;;5073258;28;20028;-41
2023/01/23 02:30:38;;;;;;;11.68;5.43;;;3.00;99.90;;;;;;5072283;28;20405;-38
2023/01/23 02:33:31;;;;;;;6.68;4.35;;;3.10;99.90;;;;;;5072405;28;20056;-36
2023/01/23 02:36:04;;;;;;;8.77;4.82;;;3.10;99.90;;;;;;5070855;28;20041;-38
2023/01/23 02:38:35;;;;;;;11.57;5.10;;;3.10;99.90;;;;;;5064277;28;20463;-37
2023/01/23 02:41:04;;;;;;;18.08;5.93;;;3.10;99.90;;;;;;5068843;28;20056;-40
2023/01/23 02:43:36;;;;;;;14.80;5.93;;;3.20;99.90;;;;;;5071903;28;20031;-38
2023/01/23 02:46:11;;;;;;;12.98;5.45;;;3.20;99.90;;;;;;5071042;28;20685;-39
2023/01/23 02:48:38;;;;;;;17.40;6.78;;;3.10;99.90;;;;;;5071764;28;20127;-40
2023/01/23 02:51:05;;;;;;;10.63;5.03;;;3.10;99.90;;;;;;5071651;28;20496;-39
2023/01/23 02:53:30;;;;;;;19.58;5.57;;;3.10;99.90;;;;;;5071216;28;20062;-37
2023/01/23 02:55:57;;;;;;;11.13;5.32;;;3.10;99.90;;;;;;5074087;28;20040;-40
2023/01/23 03:01:08;;;;;;;15.10;6.07;;;3.10;99.90;;;;;;5072008;28;20051;-38
2023/01/23 03:03:34;;;;;;;19.38;6.13;;;3.10;99.90;;;;;;5072064;28;20108;-39
2023/01/23 03:06:02;;;;;;;14.07;5.85;;;3.10;99.90;;;;;;5072752;28;20132;-37
2023/01/23 03:08:33;;;;;;;12.00;6.43;;;3.10;99.90;;;;;;5066900;28;20431;-40
2023/01/23 03:11:00;;;;;;;11.45;6.32;;;3.10;99.90;;;;;;5072372;28;20504;-40
2023/01/23 03:13:25;;;;;;;18.42;6.15;;;3.00;99.90;;;;;;5072543;28;20026;-36
2023/01/23 03:15:51;;;;;;;11.90;6.00;;;2.90;99.90;;;;;;5071051;28;20020;-40
2023/01/23 03:18:18;;;;;;;11.15;5.85;;;2.90;99.90;;;;;;5075708;28;20036;-38
2023/01/23 03:20:44;;;;;;;13.25;4.97;;;3.00;99.90;;;;;;5074377;28;20027;-37
2023/01/23 03:23:10;;;;;;;16.05;6.05;;;3.00;99.90;;;;;;5075523;28;20078;-38
2023/01/23 03:25:36;;;;;;;12.07;5.63;;;2.90;99.90;;;;;;5074456;28;20159;-39
2023/01/23 03:28:02;;;;;;;10.38;6.13;;;2.90;99.90;;;;;;5075443;28;20020;-41
2023/01/23 03:30:27;;;;;;;13.52;6.45;;;2.80;99.90;;;;;;5075468;28;20207;-41
2023/01/23 03:32:53;;;;;;;21.02;6.75;;;2.90;99.90;;;;;;5074982;28;20401;-35
2023/01/23 03:35:19;;;;;;;23.33;6.13;;;2.90;99.90;;;;;;5074956;28;20036;-39
2023/01/23 03:37:48;;;;;;;14.65;5.93;;;2.90;99.90;;;;;;5072595;28;20024;-37
2023/01/23 03:43:02;;;;;;;22.17;6.32;;;3.00;99.90;;;;;;5074260;28;20039;-42
2023/01/23 03:45:28;;;;;;;17.85;6.53;;;3.00;99.90;;;;;;5075282;28;20032;-39
2023/01/23 03:47:54;;;;;;;16.17;7.20;;;3.00;99.90;;;;;;5074654;28;20468;-35
2023/01/23 03:50:19;;;;;;;18.50;6.43;;;3.10;99.90;;;;;;5073695;28;20024;-39
2023/01/23 03:52:45;;;;;;;13.75;6.25;;;3.00;99.90;;;;;;5069490;28;20149;-37
2023/01/23 03:55:10;;;;;;;10.73;6.18;;;3.00;99.90;;;;;;5073817;28;20063;-39
2023/01/23 03:57:36;;;;;;;10.98;5.80;;;3.10;99.90;;;;;;5073134;28;20094;-40
2023/01/23 04:00:04;;;;;;;16.77;6.18;;;3.10;99.90;;;;;;5073812;28;20016;-38
2023/01/23 04:02:29;;;;;;;21.30;6.22;;;3.10;99.90;;;;;;5074613;28;20031;-39
2023/01/23 04:04:55;;;;;;;15.02;6.10;;;3.10;99.90;;;;;;5073147;28;20531;-40
2023/01/23 04:07:20;;;;;;;14.02;6.10;;;3.00;99.90;;;;;;5069997;28;20020;-37
2023/01/23 04:09:46;;;;;;;13.82;5.85;;;3.00;99.90;;;;;;5075008;28;20055;-38
2023/01/23 04:12:12;;;;;;;16.23;5.85;;;3.10;99.90;;;;;;5074650;28;20036;-40
2023/01/23 04:14:38;;;;;;;14.52;6.43;;;3.10;99.90;;;;;;5070412;28;20024;-40
2023/01/23 04:17:05;;;;;;;16.67;6.30;;;3.10;99.90;;;;;;5070563;28;20012;-37
2023/01/23 04:19:31;;;;;;;21.80;6.57;;;3.00;99.90;;;;;;5067628;28;20037;-38
2023/01/23 04:21:57;;;;;;;15.57;6.50;;;3.00;99.90;;;;;;5073188;28;20492;-37
2023/01/23 04:24:23;;;;;;;12.70;6.85;;;3.10;99.90;;;;;;5073517;28;20025;-40
2023/01/23 04:26:49;;;;;;;14.65;5.80;;;3.10;99.90;;;;;;5074279;28;20064;-39
2023/01/23 04:29:15;;;;;;;9.40;5.78;;;3.20;99.90;;;;;;5075289;28;20028;-39
2023/01/23 04:31:41;;;;;;;11.75;6.18;;;3.10;99.90;;;;;;5072545;28;20032;-38
2023/01/23 04:34:07;;;;;;;13.77;6.43;;;3.10;99.90;;;;;;5074233;28;20029;-38
2023/01/23 04:36:33;;;;;;;15.90;6.18;;;3.20;99.90;;;;;;5073781;28;20362;-38
2023/01/23 04:38:59;;;;;;;16.67;6.88;;;3.20;99.90;;;;;;5073245;28;20027;-41
2023/01/23 04:41:27;;;;;;;11.77;6.30;;;3.20;99.90;;;;;;5072418;28;20113;-39
2023/01/23 04:43:53;;;;;;;11.50;6.38;;;3.20;99.90;;;;;;5072135;28;20020;-40
2023/01/23 04:46:19;;;;;;;16.63;7.20;;;3.30;99.90;;;;;;5072195;28;20031;-40
2023/01/23 04:48:44;;;;;;;19.45;6.20;;;3.30;99.90;;;;;;5073670;28;20035;-41
2023/01/23 04:51:10;;;;;;;15.13;7.00;;;3.20;99.90;;;;;;5071980;28;20104;-37
2023/01/23 04:53:36;;;;;;;12.95;6.50;;;3.20;99.90;;;;;;5073991;28;20063;-37
2023/01/23 04:56:02;;;;;;;13.30;6.50;;;3.30;99.90;;;;;;5054247;28;20033;-40
2023/01/23 04:58:28;;;;;;;12.82;6.05;;;3.20;99.90;;;;;;5074031;28;20037;-33
2023/01/23 05:00:59;;;;;;;18.65;7.95;;;3.20;99.90;;;;;;5070285;28;20480;-40
2023/01/23 05:03:25;;;;;;;16.67;7.13;;;3.30;99.90;;;;;;5070279;28;20035;-41
2023/01/23 05:05:51;;;;;;;23.27;6.90;;;3.30;99.90;;;;;;5073034;28;20107;-41
2023/01/23 05:08:16;;;;;;;11.98;6.07;;;3.30;99.90;;;;;;5071937;28;20028;-40
2023/01/23 05:10:42;;;;;;;22.27;7.70;;;3.30;99.90;;;;;;5072409;28;20401;-40
2023/01/23 05:13:09;;;;;;;17.65;6.85;;;3.30;99.90;;;;;;5074648;28;20112;-37
2023/01/23 05:15:35;;;;;;;14.95;6.75;;;3.30;99.90;;;;;;5071373;28;20052;-40
2023/01/23 05:18:00;;;;;;;12.23;7.38;;;3.30;99.90;;;;;;5073156;28;20385;-40
2023/01/23 05:20:26;;;;;;;22.80;7.35;;;3.30;99.90;;;;;;5072627;28;20111;-38
2023/01/23 05:22:52;;;;;;;19.20;6.35;;;3.20;99.90;;;;;;5070154;28;20546;-37
2023/01/23 05:25:19;;;;;;;17.77;6.88;;;3.20;99.90;;;;;;5057809;28;20392;-40
2023/01/23 05:27:45;;;;;;;16.40;6.80;;;3.20;99.90;;;;;;5074246;28;20470;-40
2023/01/23 05:30:11;;;;;;;18.83;7.78;;;3.20;99.90;;;;;;5072712;28;20417;-38
2023/01/23 05:32:36;;;;;;;16.90;6.32;;;3.20;99.90;;;;;;5072003;28;20043;-35
2023/01/23 05:35:02;;;;;;;20.23;6.80;;;3.20;99.90;;;;;;5073265;28;20024;-41
2023/01/23 05:37:27;;;;;;;21.10;6.97;;;3.20;99.90;;;;;;5072099;28;20473;-39
2023/01/23 05:39:53;;;;;;;18.55;8.07;;;3.20;99.90;;;;;;5070609;28;20063;-38
2023/01/23 05:42:19;;;;;;;17.98;6.90;;;3.20;99.90;;;;;;5072293;28;20412;-39
2023/01/23 05:44:44;;;;;;;19.05;7.40;;;3.20;99.90;;;;;;5073154;28;20012;-38
2023/01/23 05:47:10;;;;;;;17.25;7.13;;;3.30;99.90;;;;;;5070351;28;20099;-36
2023/01/23 05:49:36;;;;;;;14.10;7.22;;;3.30;99.90;;;;;;5071330;28;20051;-40
2023/01/23 05:52:01;;;;;;;17.17;7.75;;;3.30;99.90;;;;;;5070494;28;20465;-39
2023/01/23 05:54:27;;;;;;;16.98;6.63;;;3.30;99.90;;;;;;5071798;28;20035;-39
2023/01/23 05:56:52;;;;;;;25.60;7.95;;;3.20;99.90;;;;;;5071857;28;20407;-40
2023/01/23 05:59:18;;;;;;;17.92;6.53;;;3.30;99.90;;;;;;5070256;28;20116;-35
2023/01/23 06:01:44;;;;;;;12.65;7.10;;;3.30;99.90;;;;;;5072087;28;20070;-36
2023/01/23 06:04:09;;;;;;;20.02;7.07;;;3.40;99.90;;;;;;5072433;28;20025;-37
2023/01/23 06:06:35;;;;;;;20.50;7.82;;;3.40;99.90;;;;;;5070119;28;20025;-39
2023/01/23 06:09:00;;;;;;;15.10;6.90;;;3.40;99.90;;;;;;5069257;28;20033;-36
2023/01/23 06:11:26;;;;;;;10.98;6.35;;;3.40;99.90;;;;;;5072140;28;20036;-39
2023/01/23 06:13:52;;;;;;;17.80;7.13;;;3.40;99.90;;;;;;5072805;28;20064;-36
2023/01/23 06:16:17;;;;;;;13.50;6.70;;;3.40;99.90;;;;;;5071080;28;20543;-40
2023/01/23 06:18:43;;;;;;;16.40;7.60;;;3.40;99.90;;;;;;5072098;28;20081;-40
2023/01/23 06:21:09;;;;;;;16.63;6.85;;;3.30;99.90;;;;;;5072501;28;20389;-38
2023/01/23 06:23:34;;;;;;;15.75;7.65;;;3.30;99.90;;;;;;5069466;28;20028;-38
2023/01/23 06:26:02;;;;;;;20.25;7.20;;;3.30;99.90;;;;;;5072254;28;20016;-38
2023/01/23 06:28:28;;;;;;;17.08;8.05;;;3.30;99.90;;;;;;5067429;28;20020;-34
2023/01/23 06:30:54;;;;;;;13.95;7.20;;;3.30;99.90;;;;;;5072758;28;20027;-39
2023/01/23 06:33:20;;;;;;;15.68;7.63;;;3.30;99.90;;;;;;5071895;28;20024;-39
2023/01/23 06:35:45;;;;;;;15.82;7.05;;;3.30;99.90;;;;;;5070694;28;20380;-39
2023/01/23 06:38:11;;;;;;;14.88;7.75;;;3.40;99.90;;;;;;5070093;28;20028;-38
2023/01/23 06:40:36;;;;;;;17.50;6.88;;;3.30;99.90;;;;;;5071048;28;20476;-40
2023/01/23 06:43:02;;;;;;;14.80;7.22;;;3.40;99.90;;;;;;5071915;28;20024;-34
2023/01/23 06:45:28;;;;;;;23.20;7.45;;;3.40;99.90;;;;;;5066710;28;20553;-40
2023/01/23 06:47:53;;;;;;;18.13;6.95;;;3.40;99.90;;;;;;5068462;28;20059;-37
2023/01/23 06:50:19;;;;;;;13.65;6.88;;;3.40;99.90;;;;;;5069803;28;20086;-40
2023/01/23 06:52:44;;;;;;;18.40;7.70;;;3.30;99.90;;;;;;5081160;28;20376;-38
2023/01/23 06:55:29;;;;;;;21.52;8.15;;;3.30;99.90;;;;;;5072411;28;20038;-37
2023/01/23 06:57:54;;;;;;;14.50;6.68;;;3.30;99.90;;;;;;5072493;28;20132;-36
2023/01/23 07:00:21;;;;;;;18.17;7.38;;;3.40;99.90;;;;;;5072547;28;20071;-38
2023/01/23 07:02:46;;;;;;;20.20;7.03;;;3.50;99.90;;;;;;5072792;28;20059;-38
2023/01/23 07:05:12;;;;;;;17.30;7.82;;;3.50;99.90;;;;;;5073646;28;20473;-41
2023/01/23 07:07:38;;;;;;;14.20;7.03;;;3.40;99.90;;;;;;5067145;28;20025;-41
2023/01/23 07:10:04;;;;;;;15.52;7.20;;;3.40;99.90;;;;;;5072869;28;20469;-38
2023/01/23 07:12:29;;;;;;;21.15;8.40;;;3.50;99.90;;;;;;5071790;28;20032;-36
2023/01/23 07:14:55;;;;;;;20.85;7.80;;;3.50;99.90;;;;;;5067013;28;20017;-39
2023/01/23 07:17:21;;;;;;;20.15;7.25;;;3.50;99.90;;;;;;5068350;28;20025;-39
2023/01/23 07:19:49;;;;;;;21.27;8.63;;;3.40;99.90;;;;;;5069625;28;20029;-43
2023/01/23 07:22:20;;;;;;;17.65;7.25;;;3.40;99.90;;;;;;5069685;28;20500;-38
2023/01/23 07:24:46;;;;;;;27.70;8.93;;;3.40;99.90;;;;;;5065730;28;20036;-39
2023/01/23 07:27:13;;;;;;;16.83;7.05;;;3.40;99.90;;;;;;5069688;28;20492;-38
2023/01/23 07:29:39;;;;;;;16.00;7.97;;;3.40;99.90;;;;;;5072661;28;20497;-40
2023/01/23 07:32:05;;;;;;;20.23;7.53;;;3.30;99.90;;;;;;5068942;28;20032;-37
2023/01/23 07:34:31;;;;;;;22.08;8.52;;;3.40;99.90;;;;;;5066917;28;20028;-38
2023/01/23 07:36:57;;;;;;;18.90;8.95;;;3.40;99.90;;;;;;5067710;28;20108;-36
2023/01/23 07:39:22;;;;;;;15.77;8.18;;;3.40;99.90;;;;;;5064597;28;20128;-39
2023/01/23 07:41:48;;;;;;;17.80;7.95;;;3.40;99.90;;;;;;5066213;28;20025;-36
2023/01/23 07:44:17;;;;;;;19.02;8.43;;;3.50;99.90;;;;;;5069433;28;20579;-38
2023/01/23 07:47:02;;;;;;;16.70;8.10;;;3.50;99.90;;;;;;5070335;28;20021;-37
2023/01/23 07:49:28;;;;;;;24.23;8.68;;;3.50;99.90;;;;;;5070308;28;20029;-38
2023/01/23 07:51:53;;;;;;;21.23;8.40;;;3.50;99.90;;;;;;5070027;28;20028;-39
2023/01/23 07:54:19;;;;;;;20.08;7.65;;;3.50;99.90;;;;;;5070529;28;20477;-39
2023/01/23 07:56:48;;;;;;;24.17;7.70;;;3.50;99.90;;;;;;5067572;28;20048;-40
2023/01/23 07:59:14;;;;;;;26.35;8.45;;;3.50;99.90;;;;;;5072094;28;20591;-37
2023/01/23 08:01:39;;;;;;;27.55;9.05;;;3.50;99.90;;;;;;5064688;28;20040;-39
2023/01/23 08:04:05;;;;;;;17.58;8.55;;;3.50;99.90;;;;;;5062877;28;20032;-40
2023/01/23 08:06:49;;;;;;;17.30;7.40;;;3.50;99.90;;;;;;5072221;28;20025;-38
2023/01/23 08:09:15;;;;;;;17.90;7.97;;;3.40;99.90;;;;;;5073544;28;20062;-38
2023/01/23 08:11:40;;;;;;;19.58;8.45;;;3.40;99.90;;;;;;5069031;28;20474;-37
2023/01/23 08:14:06;;;;;;;20.52;8.60;;;3.40;99.90;;;;;;5072439;28;20468;-38
2023/01/23 08:16:31;;;;;;;16.65;8.68;;;3.40;99.90;;;;;;5072033;28;20676;-37
2023/01/23 08:18:57;;;;;;;17.35;8.80;;;3.50;99.90;;;;;;5069770;28;20392;-41
2023/01/23 08:21:23;;;;;;;19.73;8.27;;;3.50;99.90;;;;;;5074211;28;20054;-41
2023/01/23 08:23:48;;;;;;;18.77;9.43;;;3.60;99.90;;;;;;5073114;28;20465;-37
2023/01/23 08:26:15;;;;;;;16.63;8.68;;;3.60;99.90;;;;;;5071799;28;20063;-40
2023/01/23 08:28:42;;;;;;;24.60;9.50;;;3.60;99.90;;;;;;5073068;28;20032;-41
2023/01/23 08:31:10;;;;;;;19.48;8.30;;;3.70;99.90;;;;;;5070307;28;20471;-40
2023/01/23 08:33:36;;;;;;;22.40;7.85;;;3.80;99.90;;;;;;5071926;28;20481;-39
2023/01/23 08:36:03;;;;;;;18.95;7.93;;;3.80;99.90;;;;;;5073257;28;20086;-40
2023/01/23 08:38:30;;;;;;;16.80;9.32;;;3.80;99.90;;;;;;5073502;28;20441;-37
2023/01/23 08:40:59;;;;;;;19.23;8.35;;;4.00;99.90;;;;;;5075012;28;20115;-38
2023/01/23 08:43:25;;;;;;;27.63;9.15;;;3.90;99.90;;;;;;5073183;28;20030;-36
2023/01/23 08:45:56;;;;;;;20.52;8.48;;;3.80;99.90;;;;;;5071169;28;20234;-39
2023/01/23 08:48:23;;;;;;;20.17;8.55;;;3.80;99.90;;;;;;5065764;28;20039;-40
2023/01/23 08:50:50;;;;;;;15.02;7.53;;;3.80;99.90;;;;;;5074859;28;20032;-39
2023/01/23 08:53:16;;;;;;;38.55;12.00;;;3.80;99.90;;;;;;5073287;28;20535;-40
2023/01/23 08:55:41;;;;;;;20.58;8.15;;;3.90;99.90;;;;;;5074772;28;20025;-34
2023/01/23 08:58:08;;;;;;;22.42;9.30;;;4.00;99.90;;;;;;5073827;28;20078;-39
2023/01/23 09:00:35;;;;;;;20.48;8.15;;;4.20;99.90;;;;;;5072997;28;20469;-38
2023/01/23 09:03:02;;;;;;;18.10;8.27;;;4.20;99.90;;;;;;5074890;28;20023;-36
2023/01/23 09:05:28;;;;;;;20.58;7.93;;;4.20;99.90;;;;;;5074487;28;20017;-38
2023/01/23 09:07:55;;;;;;;15.95;7.45;;;4.20;99.90;;;;;;5071801;28;20032;-41
2023/01/23 09:10:22;;;;;;;15.85;7.90;;;4.20;99.90;;;;;;5073062;28;20032;-37
2023/01/23 09:12:50;;;;;;;18.25;8.68;;;4.30;99.90;;;;;;5068460;28;20392;-39
2023/01/23 09:15:16;;;;;;;17.63;8.57;;;4.30;99.90;;;;;;5053563;28;20035;-39
2023/01/23 09:17:42;;;;;;;20.75;8.23;;;4.30;99.90;;;;;;5064675;28;20518;-36
2023/01/23 09:20:08;;;;;;;19.77;8.68;;;4.20;99.90;;;;;;5073709;28;20400;-40
2023/01/23 09:22:34;;;;;;;19.40;8.57;;;4.10;99.90;;;;;;5072009;28;20489;-40
2023/01/23 09:25:00;;;;;;;26.63;9.20;;;4.10;99.90;;;;;;5070701;28;20024;-49
2023/01/23 09:27:25;;;;;;;26.05;9.65;;;4.10;99.90;;;;;;5074234;28;20154;-40
2023/01/23 09:29:51;;;;;;;17.25;7.85;;;4.00;99.90;;;;;;5072514;28;20393;-40
2023/01/23 09:32:17;;;;;;;15.60;8.43;;;4.00;99.90;;;;;;5070434;28;20035;-39
2023/01/23 09:34:42;;;;;;;18.98;8.40;;;4.10;99.90;;;;;;5073209;28;20469;-43
2023/01/23 09:37:08;;;;;;;18.77;8.95;;;4.10;99.90;;;;;;5073026;28;20400;-42
2023/01/23 09:39:34;;;;;;;21.80;9.35;;;4.20;99.90;;;;;;5072753;28;20472;-41
2023/01/23 09:42:10;;;;;;;27.05;9.88;;;4.30;99.90;;;;;;5072216;28;20021;-41
2023/01/23 09:44:40;;;;;;;16.92;9.48;;;4.30;99.90;;;;;;5073777;28;20476;-41
2023/01/23 09:47:34;;;;;;;23.48;9.65;;;4.30;99.90;;;;;;5073805;28;20036;-47
2023/01/23 09:50:14;;;;;;;20.33;8.25;;;4.20;99.90;;;;;;5063649;28;20075;-42
2023/01/23 09:52:45;;;;;;;19.30;9.40;;;4.30;99.90;;;;;;5073733;28;20028;-40
2023/01/23 09:55:19;;;;;;;19.83;9.18;;;4.40;99.90;;;;;;5072952;28;20027;-40
2023/01/23 09:57:54;;;;;;;18.23;8.48;;;4.40;99.90;;;;;;5072163;28;20052;-41
2023/01/23 10:00:31;;;;;;;18.30;9.30;;;4.50;99.90;;;;;;5073604;28;20378;-40
2023/01/23 10:03:11;;;;;;;21.88;9.57;;;4.60;99.90;;;;;;5073147;28;20476;-41
2023/01/23 10:06:10;;;;;;;19.42;8.77;;;4.70;99.90;;;;;;5072713;28;20392;-42
2023/01/23 10:09:07;;;;;;;16.80;9.13;;;4.70;99.90;;;;;;5073353;28;20033;-44
2023/01/23 10:12:16;;;;;;;20.75;8.63;;;4.60;99.90;;;;;;5071540;28;20507;-41
2023/01/23 10:14:59;;;;;;;24.13;8.98;;;4.70;99.90;;;;;;4991791;28;20483;-43
2023/01/23 10:17:56;;;;;;;20.45;8.80;;;4.80;99.90;;;;;;4988405;28;20031;-41
2023/01/23 10:20:39;;;;;;;32.88;12.27;;;4.70;99.90;;;;;;5066864;28;20094;-42
2023/01/23 10:23:31;;;;;;;16.35;8.45;;;4.80;99.90;;;;;;5071036;28;20036;-41
2023/01/23 10:25:58;;;;;;;17.77;8.52;;;4.90;99.90;;;;;;5034302;28;20041;-42
2023/01/23 10:28:31;;;;;;;17.50;8.53;;;4.90;99.90;;;;;;5071898;28;20025;-40
2023/01/23 10:31:06;;;;;;;21.67;10.38;;;4.90;99.90;;;;;;5073377;28;20488;-43
2023/01/23 10:33:55;;;;;;;16.25;8.35;;;4.90;99.90;;;;;;5073089;28;20028;-40
2023/01/23 10:36:30;;;;;;;19.70;10.18;;;4.90;99.90;;;;;;5072186;28;20035;-42
2023/01/23 10:39:08;;;;;;;24.15;9.48;;;4.90;99.90;;;;;;5073024;28;20036;-41
2023/01/23 10:41:34;;;;;;;18.92;9.13;;;5.00;99.90;;;;;;5072951;28;20036;-43
2023/01/23 10:44:00;;;;;;;19.52;10.30;;;5.10;99.90;;;;;;5073221;28;20095;-41
2023/01/23 10:46:37;;;;;;;20.10;9.48;;;5.20;99.90;;;;;;5072909;28;20076;-44
2023/01/23 10:49:03;;;;;;;21.60;9.83;;;5.20;99.90;;;;;;5073162;28;20473;-41
2023/01/23 10:51:29;;;;;;;20.50;9.52;;;5.20;99.90;;;;;;5071053;28;20108;-40
2023/01/23 10:54:19;;;;;;;25.20;10.07;;;5.00;99.90;;;;;;5072850;28;20119;-43
2023/01/23 10:57:08;;;;;;;20.63;9.50;;;4.90;99.90;;;;;;5052527;28;20087;-42
2023/01/23 10:59:54;;;;;;;19.40;8.88;;;4.90;99.90;;;;;;5052639;28;20032;-40
2023/01/23 11:02:27;;;;;;;21.02;8.77;;;4.80;99.90;;;;;;5052714;28;20021;-42
2023/01/23 11:04:53;;;;;;;21.33;9.27;;;5.00;99.90;;;;;;5052860;28;20492;-41
2023/01/23 11:07:18;;;;;;;22.05;8.40;;;5.00;99.90;;;;;;5071401;28;20017;-41
2023/01/23 11:10:07;;;;;;;19.88;9.20;;;5.00;99.90;;;;;;5071766;28;20071;-43
2023/01/23 11:12:44;;;;;;;16.70;8.35;;;5.00;99.90;;;;;;5065712;28;20393;-46
2023/01/23 11:15:21;;;;;;;17.17;8.73;;;4.90;99.90;;;;;;5069179;28;20472;-39
2023/01/23 11:17:48;;;;;;;13.30;8.00;;;4.90;99.90;;;;;;5066746;28;20480;-41
2023/01/23 11:20:32;;;;;;;19.30;7.73;;;4.70;99.90;;;;;;5069050;28;20028;-45
2023/01/23 11:23:02;;;;;;;16.95;9.02;;;4.60;99.90;;;;;;5069008;28;20281;-42
2023/01/23 11:25:34;;;;;;;13.45;8.15;;;4.70;99.90;;;;;;5070870;28;20017;-41
2023/01/23 11:28:22;;;;;;;20.92;8.65;;;4.80;99.90;;;;;;5070172;28;20048;-47
2023/01/23 11:31:09;;;;;;;17.58;8.75;;;4.80;99.90;;;;;;5070640;28;20476;-50
2023/01/23 11:34:00;;;;;;;18.60;8.25;;;4.80;99.90;;;;;;5057635;28;20059;-44
2023/01/23 11:36:47;;;;;;;18.25;7.93;;;4.90;99.90;;;;;;5068409;28;20041;-48
2023/01/23 11:39:48;;;;;;;16.75;8.18;;;5.00;99.90;;;;;;5075468;28;20384;-42
2023/01/23 11:42:14;;;;;;;18.95;8.50;;;5.10;99.90;;;;;;5075641;28;20024;-40
2023/01/23 11:44:41;;;;;;;16.25;8.20;;;5.10;99.90;;;;;;5072686;28;20460;-43
2023/01/23 11:47:33;;;;;;;18.10;7.60;;;5.10;99.90;;;;;;5074685;28;20538;-42
2023/01/23 11:50:23;;;;;;;18.63;8.32;;;5.20;99.90;;;;;;5074911;28;20024;-40
2023/01/23 11:52:56;;;;;;;24.42;7.05;;;5.10;99.90;;;;;;5075764;28;20029;-43
2023/01/23 11:56:13;;;;;;;16.25;7.40;;;5.10;99.90;;;;;;5070176;28;20488;-40
2023/01/23 11:59:04;;;;;;;17.83;7.30;;;5.10;99.90;;;;;;5063236;28;20374;-36
2023/01/23 12:01:43;;;;;;;14.27;6.55;;;5.20;99.90;;;;;;5064677;28;20090;-42
2023/01/23 12:04:30;;;;;;;14.50;6.90;;;5.40;99.90;;;;;;5066472;28;20550;-40
2023/01/23 12:07:13;;;;;;;13.63;6.60;;;5.50;99.90;;;;;;5055550;28;20024;-40
2023/01/23 12:09:54;;;;;;;13.07;6.18;;;5.60;99.90;;;;;;5063134;28;20039;-41
2023/01/23 12:12:31;;;;;;;12.90;6.85;;;5.60;99.90;;;;;;5069807;28;20029;-33
2023/01/23 12:15:31;;;;;;;13.82;6.90;;;5.50;99.90;;;;;;5036518;28;20489;-35
2023/01/23 12:18:10;;;;;;;15.65;6.93;;;5.50;99.90;;;;;;5042974;28;20184;-34
2023/01/23 12:20:55;;;;;;;15.07;7.32;;;5.60;99.90;;;;;;5037204;28;20111;-35
2023/01/23 12:23:44;;;;;;;15.95;6.50;;;5.50;99.90;;;;;;5029283;28;20498;-41
2023/01/23 12:26:10;;;;;;;14.40;6.15;;;5.50;99.90;;;;;;5028175;28;20397;-34
2023/01/23 12:28:54;;;;;;;13.80;6.78;;;5.50;99.90;;;;;;5039774;28;20602;-34
2023/01/23 12:31:28;;;;;;;11.90;6.72;;;5.60;99.90;;;;;;5037077;28;20013;-36
2023/01/23 12:34:30;;;;;;;11.45;6.30;;;5.70;99.90;;;;;;5038770;28;20409;-35
2023/01/23 12:37:16;;;;;;;12.20;6.95;;;5.80;99.90;;;;;;5049191;28;20026;-34
2023/01/23 12:40:00;;;;;;;15.82;7.13;;;5.70;99.90;;;;;;5043130;28;20052;-34
2023/01/23 12:42:31;;;;;;;14.05;7.05;;;5.80;99.90;;;;;;5047308;28;20079;-36
2023/01/23 12:45:17;;;;;;;18.75;7.50;;;5.80;99.90;;;;;;5050496;28;20031;-34
2023/01/23 12:48:00;;;;;;;14.63;7.25;;;6.00;99.90;;;;;;5029327;28;20120;-33
2023/01/23 12:50:41;;;;;;;15.02;7.30;;;6.00;99.90;;;;;;5065497;28;20484;-33
2023/01/23 12:53:11;;;;;;;14.50;7.18;;;6.00;99.90;;;;;;5064014;28;20378;-35
2023/01/23 12:55:55;;;;;;;14.15;6.13;;;6.00;99.90;;;;;;5068977;28;20155;-33
2023/01/23 12:58:25;;;;;;;15.90;7.40;;;6.00;99.90;;;;;;5068888;28;20154;-31
2023/01/23 13:01:23;;;;;;;15.10;7.50;;;6.00;99.90;;;;;;5068958;28;20021;-31
2023/01/23 13:03:55;;;;;;;;;;;6.10;99.90;;;;;;5048130;28;20501;-32
2023/01/23 13:06:51;;;;;;;12.07;6.93;;;6.20;99.90;;;;;;5038415;28;20356;-32
2023/01/23 13:09:47;;;;;;;15.88;7.55;;;6.30;99.90;;;;;;5035556;28;20087;-32
2023/01/23 13:12:21;;;;;;;13.85;6.85;;;6.20;99.90;;;;;;5016236;28;20520;-37
2023/01/23 13:14:48;;;;;;;16.85;7.60;;;6.20;99.90;;;;;;5035371;28;20025;-37